createdAt,value
2023-08-15T00:01:18.697Z,99955.69
2023-08-15T00:03:48.038Z,99953.28
2023-08-15T00:06:16.909Z,99953.28
2023-08-15T00:08:45.811Z,99956.03
2023-08-15T00:11:14.536Z,99947.50
2023-08-15T00:13:43.371Z,99953.28
2023-08-15T00:16:12.655Z,99950.84
2023-08-15T00:18:44.136Z,99948.34
2023-08-15T00:21:13.030Z,99951.81
2023-08-15T00:23:41.967Z,99950.19
2023-08-15T00:26:11.125Z,99952.06
2023-08-15T00:28:40.301Z,99946.97
2023-08-15T00:31:09.232Z,99953.16
2023-08-15T00:33:38.148Z,99942.91
2023-08-15T00:36:12.038Z,99945.50
2023-08-15T00:38:40.973Z,99946.44
2023-08-15T00:41:10.028Z,99939.44
2023-08-15T00:43:38.977Z,99941.25
2023-08-15T00:46:09.863Z,99940.22
2023-08-15T00:48:40.293Z,99938.31
2023-08-15T00:51:11.898Z,99945.16
2023-08-15T00:53:41.412Z,99945.28
2023-08-15T00:56:10.475Z,99941.88
2023-08-15T00:58:39.737Z,99944.88
2023-08-15T01:01:08.657Z,99942.31
2023-08-15T01:03:38.087Z,99944.91
2023-08-15T01:06:07.181Z,99947.63
2023-08-15T01:08:37.588Z,99940.03
2023-08-15T01:11:07.145Z,99944.22
2023-08-15T01:13:45.265Z,99937.25
2023-08-15T01:16:17.689Z,99940.81
2023-08-15T01:18:52.098Z,99934.91
2023-08-15T01:21:27.554Z,99935.06
2023-08-15T01:23:58.834Z,99934.84
2023-08-15T01:26:27.998Z,99933.97
2023-08-15T01:28:56.808Z,99933.22
2023-08-15T01:31:33.303Z,99937.66
2023-08-15T01:34:09.128Z,99932.47
2023-08-15T01:36:42.541Z,99927.31
2023-08-15T01:39:15.853Z,99931.88
2023-08-15T01:41:47.733Z,99925.91
2023-08-15T01:44:18.329Z,99922.63
2023-08-15T01:46:48.485Z,99926.09
2023-08-15T01:49:17.460Z,99929.69
2023-08-15T01:51:46.361Z,99927.09
2023-08-15T01:54:17.627Z,99923.03
2023-08-15T01:56:46.389Z,99921.34
2023-08-15T01:59:15.269Z,99919.59
2023-08-15T02:01:44.240Z,99930.94
2023-08-15T02:04:13.036Z,99936.25
2023-08-15T02:06:41.916Z,99926.69
2023-08-15T02:09:11.140Z,99920.59
2023-08-15T02:11:41.369Z,99928.47
2023-08-15T02:14:10.307Z,99928.78
2023-08-15T02:16:39.152Z,99926.13
2023-08-15T02:19:08.026Z,99934.91
2023-08-15T02:21:36.853Z,99926.53
2023-08-15T02:24:06.293Z,99926.47
2023-08-15T02:26:37.278Z,99930.53
2023-08-15T02:29:07.664Z,99926.34
2023-08-15T02:31:36.797Z,99930.00
2023-08-15T02:34:06.244Z,99924.81
2023-08-15T02:36:35.164Z,99925.78
2023-08-15T02:39:04.976Z,99932.00
2023-08-15T02:41:33.819Z,99936.22
2023-08-15T02:44:03.976Z,99941.34
2023-08-15T02:46:34.329Z,99933.56
2023-08-15T02:49:03.251Z,99932.84
2023-08-15T02:51:32.016Z,99931.13
2023-08-15T02:54:00.941Z,99929.44
2023-08-15T02:56:29.777Z,99923.31
2023-08-15T02:58:58.710Z,99925.16
2023-08-15T03:01:27.704Z,99933.78
2023-08-15T03:03:58.065Z,99928.69
2023-08-15T03:06:27.804Z,99930.56
2023-08-15T03:08:56.550Z,99929.00
2023-08-15T03:11:25.578Z,99935.81
2023-08-15T03:13:55.835Z,99940.19
2023-08-15T03:16:24.752Z,99940.56
2023-08-15T03:18:53.554Z,99944.03
2023-08-15T03:21:24.816Z,99947.50
2023-08-15T03:23:53.807Z,99944.19
2023-08-15T03:26:22.568Z,99943.50
2023-08-15T03:28:53.697Z,99939.13
2023-08-15T03:31:24.227Z,99941.66
2023-08-15T03:33:58.032Z,99946.25
2023-08-15T03:36:28.680Z,99941.78
2023-08-15T03:38:57.822Z,99944.38
2023-08-15T03:41:26.701Z,99944.56
2023-08-15T03:43:55.753Z,99948.44
2023-08-15T03:46:26.809Z,99943.47
2023-08-15T03:48:56.550Z,99948.88
2023-08-15T03:51:43.917Z,99942.88
2023-08-15T03:54:15.847Z,99945.41
2023-08-15T03:56:44.634Z,99950.50
2023-08-15T03:59:13.665Z,99945.13
2023-08-15T04:01:44.107Z,99958.66
2023-08-15T04:04:13.082Z,99948.03
2023-08-15T04:06:42.940Z,99956.50
2023-08-15T04:09:11.787Z,99959.81
2023-08-15T04:11:42.088Z,99964.88
2023-08-15T04:14:11.016Z,99961.31
2023-08-15T04:16:40.816Z,99957.66
2023-08-15T04:19:09.722Z,99948.84
2023-08-15T04:21:38.572Z,99950.41
2023-08-15T04:24:07.912Z,99954.66
2023-08-15T04:26:36.628Z,99957.94
2023-08-15T04:29:07.241Z,99964.69
2023-08-15T04:31:36.151Z,99959.47
2023-08-15T04:34:07.851Z,99959.31
2023-08-15T04:36:38.657Z,99960.81
2023-08-15T04:39:07.769Z,99958.03
2023-08-15T04:41:38.945Z,99960.44
2023-08-15T04:44:11.723Z,99959.38
2023-08-15T04:46:41.157Z,99952.22
2023-08-15T04:49:09.921Z,99955.41
2023-08-15T04:51:38.794Z,99953.28
2023-08-15T04:54:08.282Z,99942.75
2023-08-15T04:56:37.166Z,99952.81
2023-08-15T04:59:06.138Z,99953.53
2023-08-15T05:01:36.537Z,99939.41
2023-08-15T05:04:05.636Z,99939.09
2023-08-15T05:06:34.764Z,99943.09
2023-08-15T05:09:03.545Z,99944.47
2023-08-15T05:11:32.749Z,99942.31
2023-08-15T05:14:03.408Z,99947.06
2023-08-15T05:16:32.237Z,99950.06
2023-08-15T05:19:02.856Z,99953.16
2023-08-15T05:21:31.868Z,99951.88
2023-08-15T05:24:00.777Z,99954.00
2023-08-15T05:26:29.865Z,99951.88
2023-08-15T05:28:58.664Z,99956.59
2023-08-15T05:31:30.763Z,99955.34
2023-08-15T05:33:59.686Z,99955.75
2023-08-15T05:36:29.970Z,99957.06
2023-08-15T05:38:58.947Z,99958.25
2023-08-15T05:41:27.766Z,99954.25
2023-08-15T05:43:56.693Z,99947.75
2023-08-15T05:46:25.468Z,99949.88
2023-08-15T05:48:54.488Z,99953.75
2023-08-15T05:51:23.285Z,99959.06
2023-08-15T05:53:53.728Z,99951.50
2023-08-15T05:56:22.480Z,99949.19
2023-08-15T05:58:51.318Z,99952.16
2023-08-15T06:01:23.105Z,99941.31
2023-08-15T06:03:53.601Z,99943.97
2023-08-15T06:06:25.171Z,99931.28
2023-08-15T06:08:55.408Z,99939.59
2023-08-15T06:11:24.452Z,99938.00
2023-08-15T06:13:53.658Z,99935.72
2023-08-15T06:16:22.609Z,99936.09
2023-08-15T06:18:51.355Z,99942.59
2023-08-15T06:21:20.326Z,99938.78
2023-08-15T06:23:49.070Z,99944.28
2023-08-15T06:26:19.540Z,99939.25
2023-08-15T06:28:48.530Z,99931.84
2023-08-15T06:31:17.370Z,99937.13
2023-08-15T06:33:46.282Z,99936.00
2023-08-15T06:36:15.136Z,99941.56
2023-08-15T06:38:44.451Z,99938.41
2023-08-15T06:41:14.118Z,99934.56
2023-08-15T06:43:44.772Z,99937.41
2023-08-15T06:46:14.005Z,99943.84
2023-08-15T06:48:42.942Z,99946.53
2023-08-15T06:51:12.060Z,99933.63
2023-08-15T06:53:42.976Z,99943.56
2023-08-15T06:56:11.982Z,99936.06
2023-08-15T06:58:40.752Z,99933.78
2023-08-15T07:01:10.933Z,99933.06
2023-08-15T07:03:39.820Z,99934.03
2023-08-15T07:06:08.738Z,99931.78
2023-08-15T07:08:39.718Z,99928.72
2023-08-15T07:11:08.622Z,99922.88
2023-08-15T07:13:37.318Z,99931.94
2023-08-15T07:16:06.815Z,99933.72
2023-08-15T07:18:37.370Z,99935.72
2023-08-15T07:21:07.069Z,99934.00
2023-08-15T07:23:35.885Z,99941.38
2023-08-15T07:26:05.162Z,99928.56
2023-08-15T07:28:34.031Z,99939.38
2023-08-15T07:31:02.853Z,99925.47
2023-08-15T07:33:31.647Z,99929.94
2023-08-15T07:36:01.919Z,99926.47
2023-08-15T07:38:30.698Z,99924.84
2023-08-15T07:40:59.819Z,99926.13
2023-08-15T07:43:28.779Z,99927.03
2023-08-15T07:45:57.647Z,99931.47
2023-08-15T07:48:26.619Z,99920.84
2023-08-15T07:50:57.089Z,99922.34
2023-08-15T07:53:27.339Z,99925.13
2023-08-15T07:55:56.199Z,99925.84
2023-08-15T07:58:24.929Z,99925.41
2023-08-15T08:00:54.055Z,99931.00
2023-08-15T08:03:22.807Z,99926.81
2023-08-15T08:05:51.856Z,99929.69
2023-08-15T08:08:20.668Z,99929.38
2023-08-15T08:10:50.986Z,99922.75
2023-08-15T08:13:20.928Z,99920.53
2023-08-15T08:15:49.765Z,99921.97
2023-08-15T08:18:19.743Z,99924.47
2023-08-15T08:20:48.742Z,99918.63
2023-08-15T08:23:17.603Z,99919.84
2023-08-15T08:25:46.667Z,99915.13
2023-08-15T08:28:16.972Z,99915.00
2023-08-15T08:30:45.848Z,99912.19
2023-08-15T08:33:15.787Z,99918.91
2023-08-15T08:35:44.640Z,99919.06
2023-08-15T08:38:13.483Z,99915.69
2023-08-15T08:40:44.113Z,99905.13
2023-08-15T08:43:13.646Z,99916.66
2023-08-15T08:45:50.735Z,99911.16
2023-08-15T08:48:20.834Z,99912.84
2023-08-15T08:50:51.545Z,99912.13
2023-08-15T08:53:20.506Z,99907.25
2023-08-15T08:55:50.615Z,99903.81
2023-08-15T08:58:19.977Z,99913.22
2023-08-15T09:00:52.976Z,99910.59
2023-08-15T09:03:24.399Z,99906.88
2023-08-15T09:05:53.921Z,99904.16
2023-08-15T09:08:23.769Z,99906.78
2023-08-15T09:10:53.008Z,99901.38
2023-08-15T09:13:23.771Z,99898.75
2023-08-15T09:15:58.209Z,99896.00
2023-08-15T09:18:29.609Z,99900.34
2023-08-15T09:20:58.764Z,99895.66
2023-08-15T09:23:27.680Z,99894.97
2023-08-15T09:25:57.457Z,99899.03
2023-08-15T09:28:26.310Z,99889.28
2023-08-15T09:31:00.254Z,99893.56
2023-08-15T09:33:29.168Z,99893.81
2023-08-15T09:35:59.250Z,99896.91
2023-08-15T09:38:30.186Z,99888.53
2023-08-15T09:40:59.579Z,99894.19
2023-08-15T09:43:28.713Z,99884.22
2023-08-15T09:46:01.049Z,99878.09
2023-08-15T09:48:30.011Z,99884.94
2023-08-15T09:51:00.277Z,99879.91
2023-08-15T09:53:29.488Z,99873.31
2023-08-15T09:55:57.978Z,99882.25
2023-08-15T09:58:26.841Z,99873.09
2023-08-15T10:00:57.622Z,99869.28
2023-08-15T10:03:34.996Z,99861.81
2023-08-15T10:06:05.570Z,99869.00
2023-08-15T10:08:35.137Z,99867.28
2023-08-15T10:11:05.428Z,99870.63
2023-08-15T10:13:35.860Z,99862.47
2023-08-15T10:16:07.906Z,99871.44
2023-08-15T10:18:38.160Z,99866.75
2023-08-15T10:21:07.561Z,99857.88
2023-08-15T10:23:38.044Z,99876.03
2023-08-15T10:26:07.533Z,99867.13
2023-08-15T10:28:37.961Z,99877.25
2023-08-15T10:31:07.089Z,99870.53
2023-08-15T10:33:39.147Z,99878.31
2023-08-15T10:36:10.414Z,99874.19
2023-08-15T10:38:45.235Z,99873.41
2023-08-15T10:41:16.293Z,99874.53
2023-08-15T10:43:50.532Z,99873.47
2023-08-15T10:46:20.598Z,99873.47
2023-08-15T10:51:27.052Z,99872.38
2023-08-15T10:53:57.928Z,99875.72
2023-08-15T10:56:29.277Z,99877.81
2023-08-15T10:58:59.921Z,99874.53
2023-08-15T11:01:30.532Z,99866.84
2023-08-15T11:04:00.846Z,99871.06
2023-08-15T11:06:30.850Z,99870.50
2023-08-15T11:09:00.914Z,99872.22
2023-08-15T11:11:35.422Z,99875.53
2023-08-15T11:14:04.353Z,99871.66
2023-08-15T11:16:33.184Z,99872.19
2023-08-15T11:19:03.326Z,99868.59
2023-08-15T11:21:32.260Z,99871.28
2023-08-15T11:24:01.244Z,99861.41
2023-08-15T11:26:30.208Z,99878.94
2023-08-15T11:28:58.636Z,99865.28
2023-08-15T11:31:27.621Z,99860.56
2023-08-15T11:33:56.650Z,99863.69
2023-08-15T11:36:26.913Z,99861.50
2023-08-15T11:38:57.436Z,99860.78
2023-08-15T11:41:26.622Z,99863.56
2023-08-15T11:43:55.784Z,99866.91
2023-08-15T11:46:26.997Z,99856.34
2023-08-15T11:48:57.650Z,99859.25
2023-08-15T11:51:27.160Z,99860.38
2023-08-15T11:53:58.033Z,99849.84
2023-08-15T11:56:26.970Z,99847.22
2023-08-15T11:58:55.705Z,99852.22
2023-08-15T12:01:26.623Z,99846.41
2023-08-15T12:03:57.707Z,99842.84
2023-08-15T12:06:28.566Z,99842.69
2023-08-15T12:08:57.360Z,99841.88
2023-08-15T12:11:27.714Z,99829.09
2023-08-15T12:13:56.507Z,99835.59
2023-08-15T12:16:25.625Z,99834.50
2023-08-15T12:18:54.599Z,99823.38
2023-08-15T12:21:23.432Z,99824.75
2023-08-15T12:23:53.676Z,99826.72
2023-08-15T12:26:22.493Z,99814.16
2023-08-15T12:28:51.191Z,99820.31
2023-08-15T12:31:20.043Z,99815.97
2023-08-15T12:33:48.733Z,99820.03
2023-08-15T12:36:17.811Z,99825.31
2023-08-15T12:38:46.195Z,99826.44
2023-08-15T12:41:16.454Z,99817.66
2023-08-15T12:43:45.887Z,99812.22
2023-08-15T12:46:14.892Z,99807.50
2023-08-15T12:48:43.979Z,99805.28
2023-08-15T12:51:12.855Z,99805.28
2023-08-15T12:53:41.430Z,99808.88
2023-08-15T12:56:10.150Z,99804.44
2023-08-15T12:58:40.485Z,99810.59
2023-08-15T13:01:10.448Z,99808.06
2023-08-15T13:03:39.623Z,99802.75
2023-08-15T13:06:08.523Z,99809.06
2023-08-15T13:08:37.475Z,99806.13
2023-08-15T13:11:06.272Z,99800.94
2023-08-15T13:13:35.213Z,99802.75
2023-08-15T13:16:05.791Z,99804.16
2023-08-15T13:18:34.736Z,99803.31
2023-08-15T13:21:03.676Z,99795.50
2023-08-15T13:23:32.607Z,99793.84
2023-08-15T13:26:01.840Z,99798.31
2023-08-15T13:28:30.875Z,99794.97
2023-08-15T13:30:59.711Z,99785.06
2023-08-15T13:33:31.166Z,99779.94
2023-08-15T13:36:01.021Z,99785.22
2023-08-15T13:38:29.714Z,99776.63
2023-08-15T13:40:58.714Z,99791.63
2023-08-15T13:43:27.736Z,99794.81
2023-08-15T13:45:58.626Z,99788.84
2023-08-15T13:48:27.573Z,99788.28
2023-08-15T13:50:57.799Z,99789.94
2023-08-15T13:53:27.175Z,99781.31
2023-08-15T13:55:56.686Z,99779.94
2023-08-15T13:58:26.572Z,99779.38
2023-08-15T14:00:55.385Z,99779.94
2023-08-15T14:03:26.538Z,99770.75
2023-08-15T14:05:55.314Z,99776.72
2023-08-15T14:08:25.555Z,99761.28
2023-08-15T14:10:54.407Z,99772.13
2023-08-15T14:13:23.039Z,99764.88
2023-08-15T14:15:51.876Z,99762.66
2023-08-15T14:18:20.564Z,99760.72
2023-08-15T14:20:49.407Z,99752.91
2023-08-15T14:23:18.086Z,99759.22
2023-08-15T14:25:48.265Z,99757.78
2023-08-15T14:28:18.051Z,99765.47
2023-08-15T14:30:47.171Z,99756.25
2023-08-15T14:33:17.554Z,99759.31
2023-08-15T14:35:47.213Z,99762.38
2023-08-15T14:38:15.883Z,99761.28
2023-08-15T14:40:44.674Z,99761.97
2023-08-15T14:43:14.832Z,99758.63
2023-08-15T14:45:44.069Z,99762.25
2023-08-15T14:48:12.841Z,99759.91
2023-08-15T14:50:41.922Z,99756.91
2023-08-15T14:53:10.284Z,99764.56
2023-08-15T14:55:39.127Z,99756.78
2023-08-15T14:58:07.831Z,99763.44
2023-08-15T15:00:38.126Z,99748.84
2023-08-15T15:03:07.326Z,99752.47
2023-08-15T15:05:36.152Z,99749.97
2023-08-15T15:08:05.657Z,99744.69
2023-08-15T15:10:37.004Z,99747.88
2023-08-15T15:13:06.530Z,99745.94
2023-08-15T15:15:51.165Z,99751.75
2023-08-15T15:18:23.880Z,99750.38
2023-08-15T15:20:52.799Z,99740.06
2023-08-15T15:23:21.810Z,99736.72
2023-08-15T15:25:50.943Z,99727.25
2023-08-15T15:28:20.018Z,99736.03
2023-08-15T15:30:49.102Z,99735.31
2023-08-15T15:33:18.047Z,99726.97
2023-08-15T15:35:48.570Z,99732.53
2023-08-15T15:38:17.484Z,99730.53
2023-08-15T15:40:46.306Z,99720.22
2023-08-15T15:43:15.133Z,99722.16
2023-08-15T15:45:43.921Z,99724.63
2023-08-15T15:48:13.283Z,99723.50
2023-08-15T15:50:42.149Z,99714.88
2023-08-15T15:53:12.556Z,99723.78
2023-08-15T15:55:41.531Z,99719.88
2023-08-15T15:58:10.283Z,99714.59
2023-08-15T16:00:39.124Z,99716.78
2023-08-15T16:03:07.964Z,99715.50
2023-08-15T16:05:37.810Z,99713.59
2023-08-15T16:08:07.071Z,99714.56
2023-08-15T16:10:37.428Z,99711.47
2023-08-15T16:13:07.158Z,99724.22
2023-08-15T16:15:35.947Z,99712.50
2023-08-15T16:18:05.159Z,99716.38
2023-08-15T16:20:34.045Z,99714.41
2023-08-15T16:23:03.756Z,99714.34
2023-08-15T16:25:32.739Z,99707.66
2023-08-15T16:28:03.049Z,99697.88
2023-08-15T16:30:32.146Z,99703.22
2023-08-15T16:33:01.025Z,99703.13
2023-08-15T16:35:29.700Z,99698.50
2023-08-15T16:37:58.752Z,99698.75
2023-08-15T16:40:27.837Z,99691.50
2023-08-15T16:43:12.562Z,99691.75
2023-08-15T16:45:41.752Z,99687.13
2023-08-15T16:48:10.751Z,99682.34
2023-08-15T16:50:39.716Z,99681.06
2023-08-15T16:53:08.838Z,99680.47
2023-08-15T16:55:38.809Z,99689.59
2023-08-15T16:58:07.748Z,99687.31
2023-08-15T17:00:38.836Z,99687.94
2023-08-15T17:03:08.076Z,99686.50
2023-08-15T17:05:37.100Z,99694.06
2023-08-15T17:08:06.688Z,99693.59
2023-08-15T17:10:35.588Z,99695.03
2023-08-15T17:13:05.902Z,99696.41
2023-08-15T17:15:34.944Z,99696.16
2023-08-15T17:18:05.913Z,99694.84
2023-08-15T17:20:34.882Z,99699.72
2023-08-15T17:23:03.862Z,99699.97
2023-08-15T17:25:32.624Z,99705.72
2023-08-15T17:28:01.526Z,99702.13
2023-08-15T17:30:30.296Z,99705.28
2023-08-15T17:32:59.185Z,99707.41
2023-08-15T17:35:30.868Z,99713.75
2023-08-15T17:38:00.175Z,99711.72
2023-08-15T17:40:28.862Z,99720.81
2023-08-15T17:42:57.902Z,99715.16
2023-08-15T17:45:26.755Z,99716.44
2023-08-15T17:47:55.719Z,99720.25
2023-08-15T17:50:24.893Z,99729.56
2023-08-15T17:52:54.872Z,99724.78
2023-08-15T17:55:26.625Z,99730.63
2023-08-15T17:57:55.501Z,99735.50
2023-08-15T18:00:24.605Z,99745.75
2023-08-15T18:02:53.166Z,99749.06
2023-08-15T18:05:22.327Z,99760.44
2023-08-15T18:07:50.920Z,99754.19
2023-08-15T18:10:21.784Z,99751.25
2023-08-15T18:12:50.626Z,99765.94
2023-08-15T18:15:19.472Z,99769.34
2023-08-15T18:17:50.234Z,99768.09
2023-08-15T18:20:19.529Z,99775.44
2023-08-15T18:22:48.291Z,99772.19
2023-08-15T18:25:17.341Z,99777.56
2023-08-15T18:27:47.490Z,99789.44
2023-08-15T18:30:16.352Z,99791.19
2023-08-15T18:32:45.209Z,99787.25
2023-08-15T18:35:14.292Z,99791.22
2023-08-15T18:37:45.777Z,99789.09
2023-08-15T18:40:17.315Z,99798.31
2023-08-15T18:42:47.642Z,99795.16
2023-08-15T18:45:16.486Z,99795.34
2023-08-15T18:47:45.375Z,99792.41
2023-08-15T18:50:16.307Z,99803.28
2023-08-15T18:52:45.114Z,99807.53
2023-08-15T18:55:14.111Z,99811.53
2023-08-15T18:57:43.836Z,99811.09
2023-08-15T19:00:16.792Z,99810.84
2023-08-15T19:02:47.318Z,99811.41
2023-08-15T19:05:16.277Z,99812.34
2023-08-15T19:07:45.202Z,99811.78
2023-08-15T19:10:14.303Z,99811.44
2023-08-15T19:12:43.279Z,99809.56
2023-08-15T19:15:20.545Z,99820.78
2023-08-15T19:17:51.058Z,99821.72
2023-08-15T19:20:22.706Z,99822.94
2023-08-15T19:22:51.685Z,99816.28
2023-08-15T19:25:20.810Z,99819.56
2023-08-15T19:27:50.662Z,99821.34
2023-08-15T19:30:22.638Z,99818.16
2023-08-15T19:32:51.888Z,99810.78
2023-08-15T19:35:22.279Z,99817.25
2023-08-15T19:37:51.143Z,99821.44
2023-08-15T19:40:20.193Z,99813.50
2023-08-15T19:42:49.184Z,99819.00
2023-08-15T19:45:18.016Z,99816.47
2023-08-15T19:47:48.370Z,99811.63
2023-08-15T19:50:17.330Z,99809.00
2023-08-15T19:52:46.309Z,99807.31
2023-08-15T19:55:15.130Z,99804.97
2023-08-15T19:57:44.138Z,99815.06
2023-08-15T20:00:14.320Z,99813.50
2023-08-15T20:02:44.020Z,99811.13
2023-08-15T20:05:14.674Z,99803.78
2023-08-15T20:07:43.579Z,99805.94
2023-08-15T20:10:13.162Z,99814.91
2023-08-15T20:12:42.779Z,99809.66
2023-08-15T20:15:12.107Z,99819.28
2023-08-15T20:17:42.001Z,99820.28
2023-08-15T20:20:12.140Z,99824.94
2023-08-15T20:22:42.477Z,99808.53
2023-08-15T20:25:12.113Z,99809.44
2023-08-15T20:27:41.075Z,99816.53
2023-08-15T20:30:11.113Z,99813.06
2023-08-15T20:32:40.290Z,99808.69
2023-08-15T20:35:11.333Z,99806.19
2023-08-15T20:37:41.738Z,99801.97
2023-08-15T20:40:11.994Z,99808.22
2023-08-15T20:42:40.850Z,99811.84
2023-08-15T20:45:11.799Z,99803.84
2023-08-15T20:47:41.292Z,99813.53
2023-08-15T20:50:09.787Z,99804.00
2023-08-15T20:52:38.966Z,99804.16
2023-08-15T20:55:12.738Z,99801.66
2023-08-15T20:57:41.583Z,99806.22
2023-08-15T21:00:12.060Z,99805.56
2023-08-15T21:02:41.035Z,99808.28
2023-08-15T21:05:13.874Z,99815.31
2023-08-15T21:07:43.226Z,99811.78
2023-08-15T21:10:13.492Z,99807.84
2023-08-15T21:12:42.305Z,99814.00
2023-08-15T21:15:11.805Z,99809.09
2023-08-15T21:17:40.701Z,99807.41
2023-08-15T21:20:11.102Z,99799.84
2023-08-15T21:22:44.981Z,99809.63
2023-08-15T21:25:15.709Z,99807.19
2023-08-15T21:27:44.466Z,99811.66
2023-08-15T21:30:13.735Z,99811.81
2023-08-15T21:32:42.812Z,99811.97
2023-08-15T21:35:11.634Z,99816.69
2023-08-15T21:37:40.525Z,99824.63
2023-08-15T21:40:10.489Z,99817.53
2023-08-15T21:42:41.289Z,99821.75
2023-08-15T21:45:11.226Z,99830.41
2023-08-15T21:47:40.357Z,99836.47
2023-08-15T21:50:10.592Z,99838.44
2023-08-15T21:52:39.515Z,99830.00
2023-08-15T21:55:08.579Z,99833.53
2023-08-15T21:57:37.564Z,99835.38
2023-08-15T22:00:09.414Z,99838.09
2023-08-15T22:02:41.313Z,99823.59
2023-08-15T22:05:10.828Z,99836.41
2023-08-15T22:07:39.410Z,99819.56
2023-08-15T22:10:09.568Z,99825.91
2023-08-15T22:12:38.469Z,99833.69
2023-08-15T22:15:10.166Z,99833.81
2023-08-15T22:17:46.087Z,99833.97
2023-08-15T22:20:17.046Z,99838.69
2023-08-15T22:22:45.808Z,99843.19
2023-08-15T22:25:17.560Z,99848.41
2023-08-15T22:27:46.911Z,99850.25
2023-08-15T22:30:17.626Z,99843.53
2023-08-15T22:32:46.618Z,99847.19
2023-08-15T22:35:15.440Z,99840.47
2023-08-15T22:37:46.057Z,99842.41
2023-08-15T22:40:15.576Z,99840.63
2023-08-15T22:42:44.029Z,99855.34
2023-08-15T22:45:12.913Z,99852.75
2023-08-15T22:47:43.154Z,99854.66
2023-08-15T22:50:12.189Z,99849.53
2023-08-15T22:52:41.007Z,99852.00
2023-08-15T22:55:10.305Z,99852.91
2023-08-15T22:57:39.107Z,99851.22
2023-08-15T23:00:11.229Z,99847.69
2023-08-15T23:02:40.286Z,99850.28
2023-08-15T23:05:11.728Z,99852.91
2023-08-15T23:07:40.804Z,99838.09
2023-08-15T23:10:10.529Z,99835.59
2023-08-15T23:12:39.439Z,99828.75
2023-08-15T23:15:09.723Z,99822.84
2023-08-15T23:17:38.569Z,99821.41
2023-08-15T23:20:10.403Z,99823.44
2023-08-15T23:22:39.319Z,99824.88
2023-08-15T23:25:10.020Z,99821.34
2023-08-15T23:27:39.167Z,99828.09
2023-08-15T23:30:09.458Z,99826.25
2023-08-15T23:32:38.303Z,99823.81
2023-08-15T23:35:08.356Z,99819.97
2023-08-15T23:37:39.020Z,99825.03
2023-08-15T23:40:09.490Z,99821.50
2023-08-15T23:42:39.419Z,99823.44
2023-08-15T23:45:12.203Z,99816.59
2023-08-15T23:47:41.483Z,99814.97
2023-08-15T23:50:13.237Z,99819.34
2023-08-15T23:52:43.605Z,99820.09
2023-08-15T23:55:12.780Z,99818.28
2023-08-15T23:57:41.539Z,99815.53
